Tiempo atmosférico en la estación meteorológica de Portocolom, Illes Balears (17 m.)



Fecha
DESCASC
Temp. máxima en grados centígrados (hora)
DESCASC
Temp. mínima en grados centígrados (hora)
DESCASC
Temp. media en grados centígrados
DESCASC
Racha de viento máxima en m/sg (hora)
DESCASC
Velocidad máxima media en intervalos de 10 minutos(hora)
DESCASC
Precipitaciones diarias en mm
DESCASC
Precipitaciones de 00:00 a 06:00 en mm
DESCASC
Precipitaciones de 06:00 a 12:00 en mm
DESCASC
Precipitaciones de 12:00 a 18:00 en mm
DESCASC
Precipitaciones de 18:00 a 24:00 en mm
DESCASC
22-01-2020 16.2 (11:40) 11.7 (03:30) 14 11.11 (13:10) 6.67 (13:30) 0.6 0.2 0 0 0.4
21-01-2020 15.5 (09:40) 12.3 (23:50) 13.9 23.61 (11:10) 14.17 (11:20) 1 0 0.4 0.6 0
20-01-2020 15.4 (23:59) 10.1 (07:50) 12.8 19.72 (02:20) 12.78 (01:40) 47.6 38.8 8.4 0.2 0.2
19-01-2020 13.5 (09:40) 10.7 (00:00) 12.1 20 (21:00) 13.06 (20:50) 135.6 1.8 60 36.8 37
18-01-2020 16.7 (15:10) 7.8 (00:00) 12.3 6.94 (16:30) 5.56 (16:40) 0 0 0 0 0
17-01-2020 17.5 (13:50) 11.3 (00:00) 14.4 13.61 (14:00) 7.78 (14:00) 0 0 0 0 0
16-01-2020 17.2 (15:20) 7.7 (00:00) 12.5 6.11 (15:20) 5 (13:00) 0 0 0 0 0
15-01-2020 16.2 (13:20) 7.9 (00:00) 12.1 11.94 (04:50) 9.44 (08:40) 0 0 0 0 0
14-01-2020 15.6 (12:30) 10.6 (00:00) 13.1 11.11 (11:00) 8.61 (10:40) 0 0 0 0 0
13-01-2020 15.2 (14:30) 5.9 (00:00) 10.5 9.44 (12:10) 6.11 (13:50) 0 0 0 0 0
12-01-2020 15.1 (13:50) 7.8 (00:00) 11.5 9.17 (10:40) 5.28 (10:50) 0 0 0 0 0
11-01-2020 14.1 (12:50) 9.7 (00:00) 11.9 15 (04:50) 9.72 (04:50) 0.8 0.8 0 0 0
10-01-2020 14.6 (12:10) 8 (00:00) 11.3 15 (21:10) 10 (18:50) 3.2 0 0 2.4 0.8
09-01-2020 16.6 (15:00) 9.1 (00:00) 12.9 5.83 (16:30) 4.72 (13:40) 0 0 0 0 0
08-01-2020 16.3 (13:20) 8.5 (00:00) 12.4 9.72 (11:00) 5.83 (10:50) 0 0 0 0 0
07-01-2020 16.9 (12:50) 9.2 (00:00) 13 5.28 (21:40) 3.89 (18:10) 0 0 0 0 0
06-01-2020 14.7 (14:40) 7.7 (00:00) 11.2 5.28 (05:30) 3.89 (05:30) 0 0 0 0 0
05-01-2020 16.8 (15:10) 7.2 (00:00) 12 4.17 (23:59) 3.61 (07:50) 0 0 0 0 0
04-01-2020 17.7 (14:00) 9.4 (00:00) 13.6 6.94 (16:30) 5 (16:40) 0 0 0 0 0
03-01-2020 15.4 (13:40) 11 (00:00) 13.2 5.83 (13:30) 4.17 (15:20) 0 0 0 0 0
02-01-2020 17.2 (13:50) 9 (00:00) 13.1 6.39 (13:40) 5.28 (14:10) 0 0 0 0 0
01-01-2020 14.9 (13:40) 8.1 (00:00) 11.5 5.28 (12:20) 2.78 (00:40) 0 0 0 0 0
31-12-2019 16.2 (13:50) 8 (00:00) 12.1 4.72 (17:10) 3.06 (00:10) 0 0 0 0 0
30-12-2019 17.4 (14:10) 7.4 (00:00) 12.4 4.72 (17:40) 3.33 (20:20) 0 0 0 0 0
29-12-2019 15.5 (13:20) 9 (00:00) 12.3 4.17 (12:40) 2.78 (23:50) 0 0 0 0 0
28-12-2019 16.5 (12:40) 9.2 (00:00) 12.8 7.78 (13:40) 4.72 (17:20) 0 0 0 0 0
27-12-2019 18.5 (14:40) 9.5 (00:00) 14 7.5 (14:20) 3.89 (12:10) 0 0 0 0 0
26-12-2019 17.9 (15:40) 9.9 (00:00) 13.9 8.61 (16:00) 5.28 (23:10) 0 0 0 0 0

Gráficas

Temp. máximas Temp. mínimas Temp. medias Precipitaciones Rachas de viento máximas Velocidades máximas media en intervalos de 10 minutos

Datos horarios

Fecha y hora oficial Temperatura (ºC) Velocidad del viento (km/h) Dirección del viento Racha (km/h) Dirección de racha Precipitación (mm) Presión (hPa) Tendencia (hPa) Humedad (%)
2020-01-24 23:00:00 9.5 10 Norte 13 Norte 0 1020 0.1 92
2020-01-24 22:00:00 9.6 9 Norte 11 Norte 0 1019.9 0.4 91
2020-01-24 21:00:00 10.3 5 Norte 9 Nordeste 0 1019.9 1 90
2020-01-24 20:00:00 11.2 4 Nordeste 7 Este 0 1019.9 1.1 88
2020-01-24 19:00:00 13.2 4 Este 11 Este 0 1019.5 0.9 81
2020-01-24 18:00:00 13.9 8 Este 12 Sudeste 0 1018.9 0.2 78
2020-01-24 17:00:00 15.3 6 Sudeste 13 Sudeste 0 1018.8 0.1 73
2020-01-24 16:00:00 15.6 6 Sudeste 12 Sudeste 0 1018.6 -0.5 72
2020-01-24 15:00:00 16.5 9 Sur 14 Sudeste 0 1018.7 -1.1 72
2020-01-24 14:00:00 16.4 8 Sudeste 14 Sudeste 0 1018.7 -1.4 74
2020-01-24 13:00:00 16.2 6 Este 15 Nordeste 0 1019.1 -0.5 74
2020-01-24 12:00:00 15.5 8 Este 13 Este 0 1019.8 0.3 73
2020-01-24 11:00:00 14.8 6 Nordeste 12 Nordeste 0 1020.1 1 77
2020-01-24 10:00:00 12.9 7 Norte 13 Norte 0 1019.6 0.8 89
2020-01-24 09:00:00 11.1 9 Norte 14 Norte 0 1019.5 0.9 92
2020-01-24 08:00:00 10.3 10 Norte 13 Norte 0 1019.1 0.4 92
2020-01-24 07:00:00 10 8 Norte 11 Norte 0 1018.8 -0.1 92
2020-01-24 06:00:00 10.2 8 Norte 15 Norte 0 1018.6 -0.8 92
2020-01-24 05:00:00 10.4 10 Norte 14 Norte 0 1018.7 -0.7 91
2020-01-24 04:00:00 10.7 10 Norte 16 Norte 0 1018.9 -0.9 90
2020-01-24 03:00:00 10.7 11 Norte 16 Norte 0 1019.4 -0.6 90
2020-01-24 02:00:00 10.7 12 Norte 17 Norte 0 1019.4 -0.7 90
2020-01-24 01:00:00 10.8 12 Norte 19 Norte 0 1019.8 -0.6 91
2020-01-24 00:00:00 10.6 12 Norte 17 Norte 0 1020 -0.3 91
2020-01-23 23:00:00 10.5 9 Norte 15 Norte 0 1020.1 0.2 90
2020-01-23 22:00:00 10.5 9 Norte 14 Norte 0 1020.4 0.9 90
2020-01-23 21:00:00 10.4 9 Norte 11 Norte 0 1020.3 1.3 90
2020-01-23 20:00:00 10.8 7 Norte 9 Norte 0 1019.9 1 89
2020-01-23 19:00:00 12 6 Norte 8 Norte 0 1019.5 0.7 85
2020-01-23 18:00:00 14 3 Sur 10 Sur 0 1019 0.1 76
2020-01-23 17:00:00 15.5 9 Sur 16 Sur 0 1018.9 -0.4 72
2020-01-23 16:00:00 16 13 Sur 17 Sudoeste 0 1018.8 -0.7 72
2020-01-23 15:00:00 16.8 14 Sudoeste 18 Sudoeste 0 1018.9 -1.1 69
2020-01-23 14:00:00 16.3 14 Sur 19 Sur 0 1019.3 -0.7 72
2020-01-23 13:00:00 16.5 11 Sur 15 Sur 0 1019.5 0.2 71
2020-01-23 12:00:00 15.9 9 Sur 13 Sur 0 1020 1.1 74
2020-01-23 11:00:00 15.2 3 Sudeste 8 Este 0 1020 1.5 78
2020-01-23 10:00:00 13.2 6 Norte 10 Noroeste 0 1019.3 1.8 84
2020-01-23 09:00:00 11.9 4 Noroeste 12 Oeste 0 1018.9 2.1 88
2020-01-23 08:00:00 11.4 5 Noroeste 9 Oeste 0 1018.5 2.1 91
2020-01-23 07:00:00 12 5 Sudoeste 14 Oeste 0.4 1017.5 1.1 90
2020-01-23 06:00:00 11.9 4 Oeste 15 Oeste 0 1016.8 0.6 86
2020-01-23 05:00:00 12.3 10 Oeste 18 Oeste 0 1016.4 0.7 83
2020-01-23 04:00:00 12.1 4 Noroeste 9 Oeste 0 1016.4 0.2 90
2020-01-23 03:00:00 13.2 3 Noroeste 10 Oeste 0 1016.2 0 89
2020-01-23 02:00:00 13.9 7 Sudoeste 23 Sudoeste 0 1015.7 0 87
2020-01-23 01:00:00 14.4 11 Sudoeste 20 Oeste 0.2 1016.2 1.4 89
2020-01-23 00:00:00 15.2 5 Sur 13 Sur 0.2 1016.2 1.2 89
2020-01-22 23:00:00 15.1 6 Este 14 Nordeste 0.2 1015.7 0.8 89
2020-01-22 22:00:00 15.1 5 Nordeste 16 Este 0 1014.8 0.2 87
2020-01-22 21:00:00 15.1 6 Este 14 Sudeste 0 1015 0.9 87
2020-01-22 20:00:00 15.3 12 Sudeste 30 Sur 0 1014.9 0.7 85
2020-01-22 19:00:00 15.4 22 Sudeste 38 Sudeste 0 1014.6 0.2 85
2020-01-22 18:00:00 15.4 20 Sur 36 Sudeste 0 1014.1 -0.7 86
2020-01-22 17:00:00 15.6 19 Sudeste 34 Sudeste 0 1014.2 -0.8 85
2020-01-22 16:00:00 15.8 20 Sudeste 34 Sudeste 0 1014.4 -1.3 84
2020-01-22 15:00:00 16.1 20 Sudeste 35 Sudeste 0 1014.8 -1.9 83
2020-01-22 14:00:00 16 22 Sur 40 Sudeste 0 1015 -1.9 84
2020-01-22 13:00:00 16 23 Sudeste 37 Sudeste 0 1015.7 -1.2 83
2020-01-22 12:00:00 16.1 17 Sudeste 30 Sudeste 0 1016.7 -0.1 83
2020-01-22 11:00:00 15.6 13 Este 28 Este 0 1016.9 0 87
2020-01-22 10:00:00 15 14 Este 21 Este 0 1016.9 0.7 89
2020-01-22 09:00:00 14.3 12 Nordeste 18 Nordeste 0 1016.8 -0.1 95
2020-01-22 08:00:00 13.3 8 Nordeste 14 Norte 0 1016.9 -0.4 96
2020-01-22 07:00:00 12.8 11 Norte 14 Norte 0 1016.2 -0.9 95
2020-01-22 06:00:00 12.8 7 Nordeste 14 Norte 0 1016.9 -0.3 95
2020-01-22 05:00:00 12.9 6 Nordeste 13 Norte 0 1017.3 0.4 94
2020-01-22 04:00:00 11.7 8 Norte 13 Norte 0.2 1017.1 0.1 94
2020-01-22 03:00:00 12.3 8 Norte 14 Norte 0 1017.2 -0.1 93
2020-01-22 02:00:00 12.2 10 Norte 14 Norte 0 1016.9 -0.2 94
2020-01-22 01:00:00 12 10 Norte 13 Norte 0 1017 0.2 94
2020-01-22 00:00:00 12.3 7 Norte 8 Nordeste 0 1017.3 1 92
2020-01-21 23:00:00 13.8 3 Sudeste 15 Sudeste 0 1017.1 1.3 89
2020-01-21 22:00:00 15.1 12 Sudeste 22 Sudeste 0 1016.8 1.6 88
2020-01-21 21:00:00 15.2 17 Sudeste 29 Sudeste 0 1016.3 1.8 87
2020-01-21 20:00:00 15.2 20 Sudeste 41 Sudeste 0 1015.8 1.8 85
2020-01-21 19:00:00 15.3 29 Sudeste 47 Sudeste 0 1015.2 0.7 84
2020-01-21 18:00:00 15.2 28 Sudeste 53 Sudeste 0 1014.5 -0.3 82
2020-01-21 17:00:00 15.2 33 Sudeste 59 Sudeste 0 1014 -0.7 84
2020-01-21 16:00:00 15.3 35 Sudeste 57 Sudeste 0.2 1014.5 -0.4 82
2020-01-21 15:00:00 15.3 35 Sudeste 61 Sudeste 0.2 1014.8 -0.4 82
2020-01-21 14:00:00 15.2 41 Sudeste 70 Sudeste 0 1014.7 0 82
2020-01-21 13:00:00 15.1 44 Sudeste 76 Sudeste 0.2 1014.9 -0.5 83
2020-01-21 12:00:00 15.1 46 Sudeste 85 Sudeste 0.2 1015.2 -0.1 84
2020-01-21 11:00:00 15.2 49 Sudeste 78 Sudeste 0 1014.7 -0.5 82
2020-01-21 10:00:00 15.4 44 Sudeste 68 Sudeste 0 1015.4 0 80
2020-01-21 09:00:00 15.4 33 Este 62 Sudeste 0.2 1015.3 -0.1 81
2020-01-21 08:00:00 15.3 30 Este 51 Este 0 1015.2 -0.3 81
2020-01-21 07:00:00 15.3 28 Este 55 Sudeste 0 1015.4 -0.5 82
2020-01-21 06:00:00 15 27 Este 49 Sudeste 0 1015.4 -0.9 83
2020-01-21 05:00:00 15.2 29 Este 58 Sudeste 0 1015.5 -1.1 83
2020-01-21 04:00:00 15.3 34 Sudeste 58 Sudeste 0 1015.9 -1.3 81
2020-01-21 03:00:00 15.3 31 Este 54 Sudeste 0 1016.3 -1.1 82
2020-01-21 02:00:00 15.3 31 Este 54 Sudeste 0 1016.6 -0.8 83
2020-01-21 01:00:00 15.4 29 Este 58 Este 0 1017.2 -0.4 83
2020-01-21 00:00:00 15.4 29 Este 47 Este 0 1017.4 -0.3 84
2020-01-20 23:00:00 15 24 Este 42 Este 0 1017.4 -0.3 77
2020-01-20 22:00:00 14.8 25 Este 44 Este 0 1017.6 0.3 84
2020-01-20 21:00:00 14.7 24 Este 43 Sudeste 0.2 1017.7 1 80
2020-01-20 20:00:00 14.4 20 Este 39 Este 0 1017.7 1.5 82
2020-01-20 19:00:00 14.2 20 Este 34 Sudeste 0 1017.3 1.6 79
2020-01-20 18:00:00 14.2 16 Sudeste 28 Sudeste 0 1016.7 1.2 79
2020-01-20 17:00:00 14.3 15 Sudeste 29 Sudeste 0 1016.2 0.7 80
2020-01-20 16:00:00 14.7 15 Sur 28 Sudeste 0 1015.7 0 79
2020-01-20 15:00:00 14.2 17 Sudeste 30 Sudeste 0 1015.5 -0.5 81
2020-01-20 14:00:00 13.9 20 Sudeste 37 Este 0 1015.5 -0.2 87
2020-01-20 13:00:00 13.9 24 Este 45 Este 0.2 1015.7 0.3 86
2020-01-20 12:00:00 13.8 23 Este 38 Sudeste 0.2 1016 1 86
2020-01-20 11:00:00 12.9 11 Nordeste 20 Norte 0 1015.7 1.3 89
2020-01-20 10:00:00 10.5 9 Nordeste 32 Nordeste 0.6 1015.4 1.7 95
2020-01-20 09:00:00 11.1 18 Nordeste 35 Este 2.4 1015 1.7 92
2020-01-20 08:00:00 11.5 13 Este 33 Este 3.4 1014.4 1.6 95
2020-01-20 07:00:00 10.7 17 Nordeste 33 Este 1.8 1013.7 1.8 89
2020-01-20 06:00:00 12.5 12 Este 31 Este 0 1013.3 0.1 90
2020-01-20 05:00:00 12.4 18 Este 38 Sudeste 0.2 1012.8 -0.1 86
2020-01-20 04:00:00 10.6 19 Norte 53 Nordeste 14.4 1011.9 -1.5 95
2020-01-20 03:00:00 11.7 35 Este 71 Este 5.2 1013.2 -0.1 93
2020-01-20 02:00:00 12 36 Este 65 Este 7.6 1012.9 0.2 94
2020-01-20 01:00:00 12 31 Este 64 Este 11.4 1013.4 1 94
2020-01-20 00:00:00 12 43 Este 62 Este 7.2 1013.3 0.6 91
2020-01-19 23:00:00 11.7 32 Nordeste 60 Este 4.8 1012.7 -0.4 92
2020-01-19 22:00:00 11.5 35 Nordeste 69 Nordeste 4.6 1012.4 -0.1 96
2020-01-19 21:00:00 11.1 45 Nordeste 72 Nordeste 7.6 1012.7 0.5 94
2020-01-19 20:00:00 11.3 31 Nordeste 59 Nordeste 6.2 1013.1 1.5 94
2020-01-19 19:00:00 10.8 9 Nordeste 26 Sudeste 6.6 1012.5 1.3 90
2020-01-19 18:00:00 11.3 13 Sudeste 36 Nordeste 7.6 1012.2 1.2 93
2020-01-19 17:00:00 11.3 19 Sudeste 59 Nordeste 10.2 1011.6 -0.4 95
2020-01-19 16:00:00 12.2 39 Nordeste 61 Nordeste 5 1011.2 -1.2 94
2020-01-19 15:00:00 12.7 26 Nordeste 43 Nordeste 5.6 1011 -2.3 94
2020-01-19 14:00:00 12.5 18 Este 32 Este 2 1012 -1.5 94
2020-01-19 13:00:00 12.8 14 Nordeste 36 Este 6.4 1012.4 -0.6 95
2020-01-19 12:00:00 12.8 24 Nordeste 40 Nordeste 20 1013.3 0.8 95
2020-01-19 11:00:00 13 14 Nordeste 26 Nordeste 28 1013.5 0.6 94
2020-01-19 10:00:00 13.3 6 Este 23 Este 4.2 1013 -0.5 93
2020-01-19 09:00:00 12.8 11 Norte 19 Norte 7.8 1012.5 -1.5 95
2020-01-19 08:00:00 12.1 9 Norte 15 Nordeste 0 1012.9 -1.9 95
2020-01-19 07:00:00 11.9 8 Norte 13 Nordeste 0 1013.5 -1.9 94
2020-01-19 06:00:00 12.8 8 Nordeste 14 Nordeste 0.8 1014 -2.4 93
2020-01-19 05:00:00 12.2 6 Norte 9 Norte 1 1014.8 -2.6 92
2020-01-19 04:00:00 12.3 4 Noroeste 17 Oeste 0 1015.4 -2.9 89
2020-01-19 03:00:00 13 10 Sudoeste 17 Sudoeste 0 1016.4 -2.7 87
2020-01-19 02:00:00 12.6 12 Oeste 19 Oeste 0 1017.4 -2 86
2020-01-19 01:00:00 11.7 8 Oeste 12 Oeste 0 1018.3 -1.8 90
2020-01-19 00:00:00 11.6 5 Noroeste 9 Noroeste 0 1019.1 -1.5 91
2020-01-18 23:00:00 11.4 6 Noroeste 12 Oeste 0 1019.4 -1.7 90
2020-01-18 22:00:00 11.2 8 Noroeste 11 Noroeste 0 1020.1 -1.5 89
2020-01-18 21:00:00 11.8 6 Noroeste 14 Oeste 0 1020.6 -1.5 86
2020-01-18 20:00:00 12.4 10 Oeste 16 Oeste 0 1021.1 -1.5 84
2020-01-18 19:00:00 12.6 9 Oeste 14 Oeste 0 1021.6 -1.7 83
2020-01-18 18:00:00 13.5 9 Oeste 21 Oeste 0 1022.1 -1.6 72
2020-01-18 17:00:00 15.3 15 Sudoeste 25 Sudoeste 0 1022.6 -2.1 76
2020-01-18 16:00:00 16.4 15 Sudoeste 24 Sudoeste 0 1023.3 -3 76
2020-01-18 15:00:00 16.4 18 Sudoeste 23 Sudoeste 0 1023.7 -4.5 77
2020-01-18 14:00:00 15.2 17 Sudoeste 23 Sudoeste 0 1024.7 -3.7 80
2020-01-18 13:00:00 15.2 17 Sudoeste 21 Sudoeste 0 1026.3 -2.1 77
2020-01-18 12:00:00 15.2 8 Sudoeste 20 Sudoeste 0 1028.2 -0.1 79
2020-01-18 11:00:00 14.2 16 Sur 21 Sur 0 1028.4 0.1 82
2020-01-18 10:00:00 12.6 10 Sudoeste 21 Sudoeste 0 1028.4 0.5 87
2020-01-18 09:00:00 11 6 Sudoeste 14 Oeste 0 1028.3 0.2 90
2020-01-18 08:00:00 8.9 4 Sudoeste 12 Sudoeste 0 1028.3 0 93
2020-01-18 07:00:00 8 2 Noroeste 7 Norte 0 1027.9 -1 91
2020-01-18 06:00:00 8.1 4 Noroeste 7 Noroeste 0 1028.1 -1 90
2020-01-18 05:00:00 8.2 3 Norte 8 Norte 0 1028.3 -0.7 90
2020-01-18 04:00:00 8.9 5 Norte 9 Norte 0 1028.9 -0.1 89
2020-01-18 03:00:00 9.1 5 Norte 13 Sudoeste 0 1029.1 0.4 88
2020-01-18 02:00:00 11.1 5 Este 13 Este 0 1029 1.2 85
2020-01-18 01:00:00 12.5 6 Nordeste 21 Este 0 1029 1.2 77
2020-01-18 00:00:00 13 14 Nordeste 27 Este 0 1028.7 1.4 79
2020-01-17 23:00:00 11.3 10 Norte 15 Noroeste 0 1027.8 0.8 62
2020-01-17 22:00:00 12.7 11 Noroeste 16 Noroeste 0 1027.8 1.6 57
2020-01-17 21:00:00 12.7 8 Norte 27 Noroeste 0 1027.3 2.4 63
2020-01-17 20:00:00 13.1 12 Noroeste 18 Oeste 0 1027 3 71
2020-01-17 19:00:00 13.6 11 Oeste 20 Oeste 0 1026.2 2.4 75
2020-01-17 18:00:00 14.7 13 Oeste 23 Oeste 0 1024.9 1.1 70
2020-01-17 17:00:00 16.6 11 Oeste 27 Oeste 0 1024 0.3 62
2020-01-17 16:00:00 17.1 15 Oeste 42 Oeste 0 1023.8 -0.8 56
2020-01-17 15:00:00 17.2 23 Oeste 48 Oeste 0 1023.8 -1.9 54
2020-01-17 14:00:00 17.3 28 Oeste 49 Oeste 0 1023.7 -2.3 53
2020-01-17 13:00:00 17 23 Oeste 46 Oeste 0 1024.6 -1.1 68
2020-01-17 12:00:00 16.6 19 Sudoeste 37 Sudoeste 0 1025.7 0.2 72
2020-01-17 11:00:00 15.6 19 Sudoeste 35 Sudoeste 0 1026 0.5 79
2020-01-17 10:00:00 13.6 14 Sudoeste 27 Oeste 0 1025.7 0.5 87
2020-01-17 09:00:00 12 10 Oeste 21 Sudoeste 0 1025.5 0.6 90
2020-01-17 08:00:00 11.9 15 Sudoeste 21 Sudoeste 0 1025.5 0.5 90
2020-01-17 07:00:00 12.1 11 Sudoeste 20 Oeste 0 1025.2 -0.2 90
2020-01-17 06:00:00 11.5 10 Oeste 24 Oeste 0 1024.9 -0.8 90
2020-01-17 05:00:00 11.6 11 Oeste 22 Oeste 0 1025 -0.8 89
2020-01-17 04:00:00 11.7 15 Oeste 24 Oeste 0 1025.4 -0.5 87
2020-01-17 03:00:00 12 14 Oeste 21 Oeste 0 1025.7 -0.6 87
2020-01-17 02:00:00 12.1 14 Oeste 24 Oeste 0 1025.8 -0.3 87
2020-01-17 01:00:00 12.2 17 Oeste 23 Oeste 0 1025.9 -0.2 85
2020-01-17 00:00:00 12.2 15 Oeste 20 Oeste 0 1026.3 0.1 86
2020-01-16 23:00:00 12.4 13 Oeste 18 Oeste 0 1026.1 -0.1 86
2020-01-16 22:00:00 12.5 11 Oeste 18 Oeste 0 1026.1 0.1 85
2020-01-16 21:00:00 12.5 12 Oeste 16 Oeste 0 1026.2 0.7 85
2020-01-16 20:00:00 12.5 10 Oeste 14 Oeste 0 1026.2 1.1 85
2020-01-16 19:00:00 13.1 9 Oeste 14 Oeste 0 1026 1.1 82
2020-01-16 18:00:00 14.2 7 Oeste 21 Sudoeste 0 1025.5 0.5 77
2020-01-16 17:00:00 16.2 9 Oeste 22 Sudoeste 0 1025.1 -0.1 69
2020-01-16 16:00:00 16.8 7 Oeste 22 Sudoeste 0 1024.9 -0.8 66
2020-01-16 15:00:00 16.4 10 Oeste 19 Sudoeste 0 1025 -1.5 68
2020-01-16 14:00:00 16.4 12 Sudoeste 22 Sudoeste 0 1025.2 -1.7 68
2020-01-16 13:00:00 16.7 18 Sudoeste 22 Sudoeste 0 1025.7 -0.9 75
2020-01-16 12:00:00 15.8 12 Sudoeste 18 Sudoeste 0 1026.5 0 78
2020-01-16 11:00:00 13.5 5 Sudoeste 8 Sudoeste 0 1026.9 0.6 83
2020-01-16 10:00:00 11.3 4 Oeste 10 Noroeste 0 1026.6 0.5 89
2020-01-16 09:00:00 8.6 7 Norte 10 Norte 0 1026.5 0.7 91
2020-01-16 08:00:00 8.7 5 Noroeste 10 Norte 0 1026.3 0.6 90
2020-01-16 07:00:00 8.2 7 Norte 10 Noroeste 0 1026.1 0.4 90
2020-01-16 06:00:00 7.8 7 Norte 9 Norte 0 1025.8 0.2 91
2020-01-16 05:00:00 8.1 7 Norte 9 Norte 0 1025.7 0.3 90
2020-01-16 04:00:00 7.7 8 Norte 9 Norte 0 1025.7 0 89
2020-01-16 03:00:00 8.1 9 Norte 10 Norte 0 1025.6 -0.1 88
2020-01-16 02:00:00 8.1 8 Norte 9 Norte 0 1025.4 0 90
2020-01-16 01:00:00 9.1 8 Norte 11 Norte 0 1025.7 0.5 91
2020-01-16 00:00:00 7.9 10 Norte 13 Norte 0 1025.7 0.8 91
2020-01-15 23:00:00 8.7 8 Norte 11 Nordeste 0 1025.4 0.7 89
2020-01-15 22:00:00 9.1 5 Norte 9 Noroeste 0 1025.2 0.9 87
2020-01-15 21:00:00 10.3 6 Noroeste 12 Noroeste 0 1024.9 1.1 84
2020-01-15 20:00:00 11 7 Noroeste 15 Oeste 0 1024.7 1.3 79
2020-01-15 19:00:00 12 11 Oeste 14 Oeste 0 1024.3 1.3 78
2020-01-15 18:00:00 13.1 8 Oeste 17 Oeste 0 1023.8 1 72
2020-01-15 17:00:00 14.7 9 Oeste 22 Oeste 0 1023.4 0.8 66
2020-01-15 16:00:00 15.7 11 Oeste 32 Oeste 0 1023 0.1 63
2020-01-15 15:00:00 15.5 13 Oeste 28 Oeste 0 1022.8 -0.7 63
2020-01-15 14:00:00 15.6 15 Oeste 30 Sudoeste 0 1022.6 -1 63
2020-01-15 13:00:00 16 21 Sudoeste 35 Sudoeste 0 1022.9 0.2 63
2020-01-15 12:00:00 15.6 13 Oeste 26 Oeste 0 1023.5 1.4 68
2020-01-15 11:00:00 14.6 22 Sudoeste 42 Sudoeste 0 1023.6 1.8 77
2020-01-15 10:00:00 14.9 32 Sudoeste 42 Sudoeste 0 1022.7 1.4 77
2020-01-15 09:00:00 14.6 33 Sudoeste 42 Sudoeste 0 1022.1 1.1 78
2020-01-15 08:00:00 14.4 27 Sudoeste 38 Sudoeste 0 1021.8 0.7 80
2020-01-15 07:00:00 14.2 26 Sudoeste 39 Sudoeste 0 1021.3 -0.1 78
2020-01-15 06:00:00 14.3 31 Sudoeste 41 Sudoeste 0 1021 -0.6 74
2020-01-15 05:00:00 14 28 Sudoeste 43 Sudoeste 0 1021.1 -0.7 74
2020-01-15 04:00:00 14.1 25 Sudoeste 35 Sudoeste 0 1021.4 -0.4 70
2020-01-15 03:00:00 13.8 26 Sudoeste 35 Sudoeste 0 1021.6 -0.4 72
2020-01-15 02:00:00 12.9 10 Sudoeste 35 Sudoeste 0 1021.8 -0.3 71
2020-01-15 01:00:00 13.5 28 Sudoeste 37 Sudoeste 0 1021.8 -0.2 71
2020-01-15 00:00:00 13.6 28 Sudoeste 37 Sudoeste 0 1022 -0.1 70
2020-01-14 23:00:00 13.8 26 Sudoeste 37 Sudoeste 0 1022.1 0 70
2020-01-14 22:00:00 12.4 13 Sudoeste 21 Oeste 0 1022 0.4 71
2020-01-14 21:00:00 12 6 Oeste 16 Oeste 0 1022.1 0.8 69
2020-01-14 20:00:00 12.2 10 Oeste 28 Sudoeste 0 1022.1 1.1 68
2020-01-14 19:00:00 13.9 22 Sudoeste 28 Sudoeste 0 1021.6 0.8 72
2020-01-14 18:00:00 13.5 9 Sudoeste 28 Sudoeste 0 1021.3 0.8 68
2020-01-14 17:00:00 14.1 18 Sudoeste 31 Sudoeste 0 1021 0.3 67
2020-01-14 16:00:00 14.6 22 Sudoeste 33 Sudoeste 0 1020.8 -0.5 67
2020-01-14 15:00:00 15.3 26 Sudoeste 37 Sudoeste 0 1020.5 -1.4 63
2020-01-14 14:00:00 14.3 24 Sudoeste 39 Sudoeste 0 1020.7 -1.7 67
2020-01-14 13:00:00 14.7 30 Sudoeste 39 Sudoeste 0 1021.3 -0.8 67
2020-01-14 12:00:00 14.7 29 Sudoeste 38 Sudoeste 0 1021.9 0.4 66
2020-01-14 11:00:00 14.4 29 Sudoeste 40 Sudoeste 0 1022.4 1.1 67
2020-01-14 10:00:00 13.4 17 Sudoeste 36 Sudoeste 0 1022.1 1.5 68
2020-01-14 09:00:00 11.6 12 Oeste 23 Oeste 0 1021.5 1.4 73
2020-01-14 08:00:00 10.9 13 Oeste 23 Oeste 0 1021.3 1 74
2020-01-14 07:00:00 10.8 13 Oeste 19 Oeste 0 1020.6 0 74
2020-01-14 06:00:00 11 12 Oeste 20 Oeste 0 1020.1 -0.6 75
2020-01-14 05:00:00 10.8 12 Oeste 19 Oeste 0 1020.3 -0.5 76
2020-01-14 04:00:00 11.1 12 Oeste 24 Oeste 0 1020.6 -0.4 74
2020-01-14 03:00:00 11.4 12 Oeste 20 Oeste 0 1020.7 -1 75
2020-01-14 02:00:00 11 12 Oeste 21 Oeste 0 1020.8 -0.9 76
2020-01-14 01:00:00 11 14 Oeste 22 Oeste 0 1021 -0.7 76
2020-01-14 00:00:00 11 13 Oeste 24 Oeste 0 1021.7 -0.5 77
2020-01-13 23:00:00 10.9 12 Oeste 23 Oeste 0 1021.7 -0.7 78
2020-01-13 22:00:00 11 12 Oeste 19 Oeste 0 1021.7 -0.6 79
2020-01-13 21:00:00 10.9 10 Oeste 18 Oeste 0 1022.2 0.2 76
2020-01-13 20:00:00 10.9 10 Oeste 17 Oeste 0 1022.4 0.6 76
2020-01-13 19:00:00 11.2 7 Noroeste 17 Oeste 0 1022.3 0.4 75
2020-01-13 18:00:00 12.2 10 Oeste 17 Sudoeste 0 1022 0.1 71
2020-01-13 17:00:00 13.7 9 Sudoeste 26 Oeste 0 1021.8 -0.6 68
2020-01-13 16:00:00 14.8 14 Oeste 27 Oeste 0 1021.9 -1.5 61
2020-01-13 15:00:00 15.1 13 Oeste 32 Sudoeste 0 1021.9 -2.4 61
2020-01-13 14:00:00 15 17 Oeste 32 Oeste 0 1022.4 -2.6 61
2020-01-13 13:00:00 14.6 18 Oeste 34 Sudoeste 0 1023.4 -1.3 63
2020-01-13 12:00:00 14.1 17 Oeste 29 Sudoeste 0 1024.3 0 71
2020-01-13 11:00:00 13.2 11 Oeste 18 Oeste 0 1025 0.8 74
2020-01-13 10:00:00 11.2 6 Oeste 11 Noroeste 0 1024.7 0.6 85
2020-01-13 09:00:00 8.3 3 Noroeste 10 Noroeste 0 1024.3 0 91
2020-01-13 08:00:00 7.3 4 Noroeste 9 Norte 0 1024.2 -0.4 93
2020-01-13 07:00:00 6.6 0 Calma 12 Oeste 0 1024.1 -1 89
2020-01-13 06:00:00 8.1 8 Oeste 12 Oeste 0 1024.3 -1.1 91
2020-01-13 05:00:00 7.1 7 Noroeste 13 Oeste 0 1024.6 -0.9 89
2020-01-13 04:00:00 7.7 8 Oeste 12 Oeste 0 1025.1 -1 87
2020-01-13 03:00:00 6.6 6 Oeste 10 Oeste 0 1025.4 -1.3 89
2020-01-13 02:00:00 6.7 5 Noroeste 11 Norte 0 1025.5 -1.4 87
2020-01-13 01:00:00 7.7 8 Norte 11 Norte 0 1026.1 -0.6 87
2020-01-13 00:00:00 8.2 8 Norte 12 Norte 0 1026.7 -0.1 84
2020-01-12 23:00:00 8.8 10 Norte 15 Norte 0 1026.9 0.1 83
2020-01-12 22:00:00 8.7 13 Norte 15 Norte 0 1026.7 0 85
2020-01-12 21:00:00 7.8 8 Norte 11 Norte 0 1026.8 0.7 86
2020-01-12 20:00:00 8.4 7 Norte 11 Norte 0 1026.8 1.2 85
2020-01-12 19:00:00 9.6 7 Norte 15 Norte 0 1026.7 1.3 80
2020-01-12 18:00:00 11.1 10 Norte 16 Norte 0 1026.1 1 73
2020-01-12 17:00:00 13.3 9 Norte 21 Nordeste 0 1025.6 0.2 66
2020-01-12 16:00:00 14.4 13 Nordeste 21 Nordeste 0 1025.4 -0.7 64
2020-01-12 15:00:00 14.8 12 Nordeste 24 Norte 0 1025.1 -1.7 59
2020-01-12 14:00:00 14.8 13 Nordeste 24 Nordeste 0 1025.4 -1.8 60
2020-01-12 13:00:00 14.5 14 Nordeste 28 Nordeste 0 1026.1 -1 58
2020-01-12 12:00:00 13.9 16 Norte 27 Norte 0 1026.8 0.2 60
2020-01-12 11:00:00 13.1 15 Norte 33 Norte 0 1027.2 1 64
2020-01-12 10:00:00 11.6 12 Norte 19 Norte 0 1027.1 1 70
2020-01-12 09:00:00 9.6 13 Norte 18 Norte 0 1026.6 0.9 74
2020-01-12 08:00:00 9 15 Norte 20 Norte 0 1026.2 0.5 74
2020-01-12 07:00:00 9 15 Norte 20 Norte 0 1026.1 0 76
2020-01-12 06:00:00 9.3 14 Norte 19 Norte 0 1025.7 -0.4 76
2020-01-12 05:00:00 9.2 12 Norte 18 Norte 0 1025.7 -0.4 76
2020-01-12 04:00:00 9.2 13 Norte 24 Norte 0 1026.1 -0.4 76
2020-01-12 03:00:00 9.6 17 Norte 24 Norte 0 1026.1 -0.7 75
2020-01-12 02:00:00 9.4 15 Norte 23 Norte 0 1026.1 -0.8 73
2020-01-12 01:00:00 10 13 Norte 20 Norte 0 1026.5 -0.3 73
2020-01-12 00:00:00 10 12 Norte 18 Norte 0 1026.8 0.1 76
2020-01-11 23:00:00 10 10 Norte 17 Norte 0 1026.9 0.2 76
2020-01-11 22:00:00 11.2 10 Norte 19 Norte 0 1026.8 0.3 70
2020-01-11 21:00:00 11.2 11 Norte 22 Norte 0 1026.7 0.6 70
2020-01-11 20:00:00 10.5 13 Norte 23 Norte 0 1026.7 0.8 71
2020-01-11 19:00:00 9.8 9 Norte 18 Norte 0 1026.5 0.7 74
2020-01-11 18:00:00 10.6 11 Norte 27 Nordeste 0 1026.1 0.5 68
2020-01-11 17:00:00 11.7 13 Norte 39 Nordeste 0 1025.9 0.1 64
2020-01-11 16:00:00 12.4 19 Nordeste 41 Norte 0 1025.8 -0.7 59
2020-01-11 15:00:00 12.7 25 Nordeste 46 Nordeste 0 1025.6 -1.6 61
2020-01-11 14:00:00 13.6 25 Nordeste 50 Nordeste 0 1025.8 -1.6 60
2020-01-11 13:00:00 13.9 23 Nordeste 42 Nordeste 0 1026.5 -0.4 59
2020-01-11 12:00:00 13.5 23 Nordeste 39 Nordeste 0 1027.2 1 62
2020-01-11 11:00:00 13 20 Nordeste 39 Nordeste 0 1027.4 1.7 65
2020-01-11 10:00:00 12.3 19 Nordeste 35 Nordeste 0 1026.9 1.6 70
2020-01-11 09:00:00 12.3 18 Nordeste 35 Nordeste 0 1026.2 1.6 72
2020-01-11 08:00:00 11.9 17 Norte 34 Nordeste 0 1025.7 1.6 72
2020-01-11 07:00:00 12 16 Nordeste 50 Nordeste 0 1025.3 1.2 74
2020-01-11 06:00:00 12.9 25 Nordeste 50 Nordeste 0 1024.6 0.3 73
2020-01-11 05:00:00 12.7 27 Nordeste 54 Nordeste 0.2 1024.1 0.2 73
2020-01-11 04:00:00 12.9 28 Nordeste 51 Nordeste 0 1024.1 0 77
2020-01-11 03:00:00 12.6 22 Nordeste 44 Nordeste 0 1024.3 -0.1 78
2020-01-11 02:00:00 12.4 23 Nordeste 44 Nordeste 0 1023.9 -0.2 77
2020-01-11 01:00:00 12.2 26 Nordeste 44 Nordeste 0.6 1024.1 0.4 78
2020-01-11 00:00:00 11.7 21 Nordeste 39 Nordeste 0.6 1024.4 1.3 88
2020-01-10 23:00:00 12.6 19 Nordeste 51 Nordeste 0 1024.1 1.4 78
2020-01-10 22:00:00 13.7 31 Nordeste 54 Nordeste 0 1023.7 1.6 73
2020-01-10 21:00:00 13.5 34 Nordeste 53 Nordeste 0 1023.1 1.5 74
2020-01-10 20:00:00 13.6 32 Nordeste 53 Nordeste 0.2 1022.7 1.4 75
2020-01-10 19:00:00 13.2 33 Nordeste 53 Nordeste 0 1022.1 1.1 78
2020-01-10 18:00:00 12.8 28 Nordeste 48 Nordeste 0.2 1021.6 0.9 82
2020-01-10 17:00:00 12.4 31 Este 47 Este 2 1021.3 0.5 88
2020-01-10 16:00:00 12.8 25 Nordeste 41 Nordeste 0.2 1021 -0.4 84
2020-01-10 15:00:00 13.8 22 Nordeste 39 Este 0 1020.7 -1.2 75
2020-01-10 14:00:00 13.7 24 Nordeste 39 Nordeste 0 1020.8 -1.5 76
2020-01-10 13:00:00 13.9 20 Nordeste 34 Nordeste 0 1021.4 -0.8 78
2020-01-10 12:00:00 14.1 17 Nordeste 26 Nordeste 0 1021.9 0.1 76
2020-01-10 11:00:00 12.9 8 Nordeste 15 Norte 0 1022.3 1.2 83
2020-01-10 10:00:00 11.1 10 Norte 15 Norte 0 1022.2 0.9 88
2020-01-10 09:00:00 10.4 9 Norte 17 Norte 0 1021.8 0.8 91
2020-01-10 08:00:00 9.9 3 Nordeste 10 Norte 0 1021.1 -0.3 89
2020-01-10 07:00:00 9.3 9 Norte 11 Norte 0 1021.3 -0.6 92
2020-01-10 06:00:00 10.4 8 Norte 11 Norte 0 1021 -1.2 91
2020-01-10 05:00:00 10.1 9 Norte 14 Norte 0 1021.4 -0.1 92
2020-01-10 04:00:00 9 10 Norte 15 Norte 0 1021.9 -0.1 92
2020-01-10 03:00:00 8.9 10 Norte 14 Noroeste 0 1022.2 -0.8 92
2020-01-10 02:00:00 8.4 6 Norte 13 Norte 0 1021.5 -2 92
2020-01-10 01:00:00 8.4 5 Norte 12 Norte 0 1022 -1.8 90
2020-01-10 00:00:00 9.4 4 Norte 8 Norte 0 1023 -0.7 88
2020-01-09 23:00:00 10 5 Oeste 8 Oeste 0 1023.5 -0.2 87
2020-01-09 22:00:00 10.4 4 Oeste 8 Oeste 0 1023.8 0 84
2020-01-09 21:00:00 9.9 4 Noroeste 9 Norte 0 1023.7 0.1 88
2020-01-09 20:00:00 10.6 3 Noroeste 7 Oeste 0 1023.7 0.1 85
2020-01-09 19:00:00 12.6 4 Noroeste 18 Sur 0 1023.8 0.2 79
2020-01-09 18:00:00 14.2 13 Sur 19 Sur 0 1023.6 0 73
2020-01-09 17:00:00 14.7 14 Sur 21 Sur 0 1023.6 -0.4 70
2020-01-09 16:00:00 15.9 13 Sur 17 Sur 0 1023.6 -1.2 69
2020-01-09 15:00:00 16.5 10 Sur 17 Sur 0 1023.6 -2 69
2020-01-09 14:00:00 16.5 13 Sur 21 Sur 0 1024 -2.1 66
2020-01-09 13:00:00 16.1 10 Sur 20 Sur 0 1024.8 -1.1 67
2020-01-09 12:00:00 16.1 6 Este 14 Nordeste 0 1025.6 -0.1 70
2020-01-09 11:00:00 13.8 8 Nordeste 16 Nordeste 0 1026.1 0.6 80
2020-01-09 10:00:00 11.4 7 Norte 16 Norte 0 1025.9 0.4 86
2020-01-09 09:00:00 9.7 11 Norte 15 Norte 0 1025.7 0.2 86
2020-01-09 08:00:00 9.1 10 Norte 17 Norte 0 1025.5 -0.3 86
2020-01-09 07:00:00 9.5 12 Norte 18 Norte 0 1025.5 -0.6 86
2020-01-09 06:00:00 9.5 11 Norte 18 Norte 0 1025.5 -1 86
2020-01-09 05:00:00 9.6 10 Norte 16 Norte 0 1025.8 -0.9 86
2020-01-09 04:00:00 9.5 9 Norte 16 Norte 0 1026.1 -0.7 87
2020-01-09 03:00:00 9.9 9 Norte 17 Norte 0 1026.5 -0.7 86
2020-01-09 02:00:00 9.9 9 Norte 16 Norte 0 1026.7 -0.8 87
2020-01-09 01:00:00 9.9 10 Norte 17 Norte 0 1026.8 -0.8 86
2020-01-09 00:00:00 10.2 11 Norte 16 Norte 0 1027.2 -0.3 84
2020-01-08 23:00:00 10.6 11 Norte 15 Norte 0 1027.5 0.1 83
2020-01-08 22:00:00 11.4 10 Norte 14 Norte 0 1027.6 0.3 78
2020-01-08 21:00:00 11.3 10 Norte 15 Norte 0 1027.5 0.3 78
2020-01-08 20:00:00 11.7 10 Norte 17 Nordeste 0 1027.4 0.8 80
2020-01-08 19:00:00 12.5 10 Norte 19 Nordeste 0 1027.3 1.1 76
2020-01-08 18:00:00 13.2 9 Norte 27 Nordeste 0 1027.2 1 75
2020-01-08 17:00:00 14.4 15 Nordeste 26 Nordeste 0 1026.6 0.5 69
2020-01-08 16:00:00 15.1 16 Nordeste 28 Nordeste 0 1026.2 -0.1 69
2020-01-08 15:00:00 15.7 15 Nordeste 27 Nordeste 0 1026.2 -1 69
2020-01-08 14:00:00 15.8 20 Nordeste 31 Nordeste 0 1026.1 -1.2 71
2020-01-08 13:00:00 16 17 Nordeste 31 Nordeste 0 1026.3 -0.7 64
2020-01-08 12:00:00 15.6 16 Nordeste 32 Nordeste 0 1027.2 0.8 65
2020-01-08 11:00:00 14.8 19 Nordeste 35 Nordeste 0 1027.3 1.1 67
2020-01-08 10:00:00 13.2 10 Norte 21 Norte 0 1027 1.2 79
2020-01-08 09:00:00 10.4 7 Norte 13 Norte 0 1026.4 0.8 87
2020-01-08 08:00:00 9.3 8 Norte 18 Norte 0 1026.2 0.6 85
2020-01-08 07:00:00 8.7 9 Norte 12 Norte 0 1025.8 0.2 80
2020-01-08 06:00:00 8.5 8 Norte 11 Norte 0 1025.6 0.2 84
2020-01-08 05:00:00 9.5 10 Norte 15 Norte 0 1025.6 0.2 80
2020-01-08 04:00:00 8.6 12 Norte 15 Norte 0 1025.6 0.2 87
2020-01-08 03:00:00 9.5 7 Noroeste 11 Oeste 0 1025.4 -0.1 88
2020-01-08 02:00:00 8.8 10 Norte 12 Norte 0 1025.4 -0.4 91
2020-01-08 01:00:00 9.9 8 Este 11 Este 0 1025.4 -0.8 84
2020-01-08 00:00:00 10.2 3 Norte 8 Norte 0 1025.5 -0.8 87
2020-01-07 23:00:00 11.5 4 Oeste 15 Noroeste 0 1025.8 -0.5 83
2020-01-07 22:00:00 11.9 9 Noroeste 19 Oeste 0 1026.2 -0.3 81
2020-01-07 21:00:00 11.5 8 Noroeste 17 Noroeste 0 1026.3 -0.1 84
2020-01-07 20:00:00 11.2 8 Noroeste 15 Noroeste 0 1026.3 -0.1 84
2020-01-07 19:00:00 12.2 3 Noroeste 18 Sur 0 1026.5 0.3 82
2020-01-07 18:00:00 14 13 Sur 17 Sur 0 1026.4 0.4 76
2020-01-07 17:00:00 14.9 6 Sur 14 Sur 0 1026.4 0.1 71
2020-01-07 16:00:00 15.6 12 Sur 17 Sur 0 1026.2 -1 68
2020-01-07 15:00:00 15.7 9 Sur 13 Sudoeste 0 1026 -2 70
2020-01-07 14:00:00 16.5 5 Sur 12 Sur 0 1026.3 -2.1 67
2020-01-07 13:00:00 16.2 7 Este 12 Sudeste 0 1027.2 -1 68
2020-01-07 12:00:00 15.8 5 Nordeste 13 Este 0 1028 0.4 70
2020-01-07 11:00:00 15.1 7 Nordeste 12 Nordeste 0 1028.4 1.1 72
2020-01-07 10:00:00 12.9 6 Norte 13 Norte 0 1028.2 1.8 81
2020-01-07 09:00:00 11.1 5 Norte 14 Norte 0 1027.6 1 86
2020-01-07 08:00:00 10.3 10 Norte 13 Norte 0 1027.3 0.5 91
2020-01-07 07:00:00 10.3 8 Norte 10 Norte 0 1026.4 -0.7 89
2020-01-07 06:00:00 10.7 6 Norte 10 Norte 0 1026.6 -0.6 87
2020-01-07 05:00:00 10.8 8 Norte 10 Norte 0 1026.8 -0.1 86
2020-01-07 04:00:00 11.8 7 Norte 12 Norte 0 1027.1 0.2 82
2020-01-07 03:00:00 12 8 Norte 15 Norte 0 1027.2 0.4 80
2020-01-07 02:00:00 12.3 8 Norte 13 Norte 0 1026.9 0.3 77
2020-01-07 01:00:00 12.8 7 Norte 12 Norte 0 1026.9 0.4 75
2020-01-07 00:00:00 13 6 Nordeste 13 Nordeste 0 1026.8 0.7 75
2020-01-06 23:00:00 12.4 4 Nordeste 10 Norte 0 1026.6 0.7 78
2020-01-06 22:00:00 12.5 6 Norte 9 Norte 0 1026.5 0.9 76
2020-01-06 21:00:00 12.4 5 Norte 9 Noroeste 0 1026.1 0.9 76
2020-01-06 20:00:00 12.7 5 Noroeste 9 Noroeste 0 1025.9 0.9 74
2020-01-06 19:00:00 12.6 5 Norte 9 Noroeste 0 1025.6 0.6 77
2020-01-06 18:00:00 13.2 2 Noroeste 8 Oeste 0 1025.2 0.4 74
2020-01-06 17:00:00 13.9 5 Oeste 9 Sudoeste 0 1025 -0.1 70
2020-01-06 16:00:00 14.4 3 Oeste 8 Sudoeste 0 1025 -0.6 67
2020-01-06 15:00:00 14.6 3 Noroeste 12 Oeste 0 1024.8 -1.3 66
2020-01-06 14:00:00 14.4 6 Oeste 13 Oeste 0 1025.1 -1.4 64
2020-01-06 13:00:00 14.2 4 Noroeste 13 Oeste 0 1025.6 -0.7 66
2020-01-06 12:00:00 13.4 6 Noroeste 12 Noroeste 0 1026.1 0.2 70
2020-01-06 11:00:00 12.7 6 Noroeste 15 Noroeste 0 1026.5 1.2 71
2020-01-06 10:00:00 12.2 7 Noroeste 14 Noroeste 0 1026.3 1.3 76